Terminal Aerodrome Forecast
Issued by NWS

Home | Current Version | Previous Version | Text Only | Print | Product List | Glossary On
Versions: 1 2 3 4 5 6 7 8 9 10 11 12
000
FTUS42 TJSJ 291700
TAFJBQ
TAF
TJBQ 291735Z 2918/3018 04010KT P6SM VCTS SCT040CB SCT045 SCT060
      TEMPO 2918/2920 4SM TSRA BKN030CB
     FM292330 10005KT P6SM FEW025
     FM301500 07010KT P6SM VCSH SCT040 SCT250=

USA.gov is the U.S. government's official web portal to all federal, state and local government web resources and services.